sensor_id;sensor_type;location;lat;lon;timestamp;P1;durP1;ratioP1;P2;durP2;ratioP2
27839;SDS011;15207;42.182;24.308;2023-02-28T00:00:18;22.60;;;11.50;;
27839;SDS011;15207;42.182;24.308;2023-02-28T00:02:44;22.50;;;12.25;;
27839;SDS011;15207;42.182;24.308;2023-02-28T00:07:37;20.00;;;11.30;;
27839;SDS011;15207;42.182;24.308;2023-02-28T00:10:07;20.30;;;11.20;;
27839;SDS011;15207;42.182;24.308;2023-02-28T00:12:35;24.05;;;11.30;;
27839;SDS011;15207;42.182;24.308;2023-02-28T00:15:02;28.43;;;11.13;;
27839;SDS011;15207;42.182;24.308;2023-02-28T00:17:31;19.20;;;10.10;;
27839;SDS011;15207;42.182;24.308;2023-02-28T00:19:57;20.40;;;9.00;;
27839;SDS011;15207;42.182;24.308;2023-02-28T00:22:26;24.10;;;9.50;;
27839;SDS011;15207;42.182;24.308;2023-02-28T00:24:52;18.60;;;8.50;;
27839;SDS011;15207;42.182;24.308;2023-02-28T00:27:18;14.90;;;9.00;;
27839;SDS011;15207;42.182;24.308;2023-02-28T00:29:43;20.60;;;9.30;;
27839;SDS011;15207;42.182;24.308;2023-02-28T00:32:12;20.90;;;9.55;;
27839;SDS011;15207;42.182;24.308;2023-02-28T00:34:38;20.15;;;9.25;;
27839;SDS011;15207;42.182;24.308;2023-02-28T00:37:08;15.38;;;7.90;;
27839;SDS011;15207;42.182;24.308;2023-02-28T00:39:35;17.20;;;9.00;;
27839;SDS011;15207;42.182;24.308;2023-02-28T00:42:02;19.50;;;8.30;;
27839;SDS011;15207;42.182;24.308;2023-02-28T00:44:28;23.90;;;8.05;;
27839;SDS011;15207;42.182;24.308;2023-02-28T00:46:54;19.35;;;7.80;;
27839;SDS011;15207;42.182;24.308;2023-02-28T00:49:21;14.75;;;8.40;;
27839;SDS011;15207;42.182;24.308;2023-02-28T00:51:47;18.80;;;8.30;;
27839;SDS011;15207;42.182;24.308;2023-02-28T00:54:13;14.60;;;8.10;;
27839;SDS011;15207;42.182;24.308;2023-02-28T00:56:38;15.95;;;9.15;;
27839;SDS011;15207;42.182;24.308;2023-02-28T00:59:04;17.90;;;8.90;;
27839;SDS011;15207;42.182;24.308;2023-02-28T01:01:29;20.00;;;9.05;;
27839;SDS011;15207;42.182;24.308;2023-02-28T01:03:55;20.40;;;8.03;;
27839;SDS011;15207;42.182;24.308;2023-02-28T01:06:21;24.55;;;9.30;;
27839;SDS011;15207;42.182;24.308;2023-02-28T01:08:46;18.30;;;9.00;;
27839;SDS011;15207;42.182;24.308;2023-02-28T01:11:13;20.67;;;8.48;;
27839;SDS011;15207;42.182;24.308;2023-02-28T01:16:06;19.80;;;9.70;;
27839;SDS011;15207;42.182;24.308;2023-02-28T01:18:32;25.40;;;9.20;;
27839;SDS011;15207;42.182;24.308;2023-02-28T01:20:58;19.60;;;9.30;;
27839;SDS011;15207;42.182;24.308;2023-02-28T01:23:27;16.90;;;9.35;;
27839;SDS011;15207;42.182;24.308;2023-02-28T01:25:53;23.05;;;10.35;;
27839;SDS011;15207;42.182;24.308;2023-02-28T01:28:18;23.85;;;10.80;;
27839;SDS011;15207;42.182;24.308;2023-02-28T01:30:48;25.10;;;13.15;;
27839;SDS011;15207;42.182;24.308;2023-02-28T01:33:15;20.90;;;11.10;;
27839;SDS011;15207;42.182;24.308;2023-02-28T01:35:41;23.70;;;10.70;;
27839;SDS011;15207;42.182;24.308;2023-02-28T01:38:06;21.10;;;9.60;;
27839;SDS011;15207;42.182;24.308;2023-02-28T01:40:32;20.90;;;8.95;;
27839;SDS011;15207;42.182;24.308;2023-02-28T01:42:58;18.10;;;9.45;;
27839;SDS011;15207;42.182;24.308;2023-02-28T01:45:30;19.05;;;8.45;;
27839;SDS011;15207;42.182;24.308;2023-02-28T01:48:05;18.70;;;8.10;;
27839;SDS011;15207;42.182;24.308;2023-02-28T01:50:38;17.55;;;7.85;;
27839;SDS011;15207;42.182;24.308;2023-02-28T01:53:07;17.55;;;8.10;;
27839;SDS011;15207;42.182;24.308;2023-02-28T01:55:35;21.25;;;9.75;;
27839;SDS011;15207;42.182;24.308;2023-02-28T01:58:02;21.53;;;9.13;;
27839;SDS011;15207;42.182;24.308;2023-02-28T02:00:31;22.80;;;9.80;;
27839;SDS011;15207;42.182;24.308;2023-02-28T02:03:00;22.00;;;8.77;;
27839;SDS011;15207;42.182;24.308;2023-02-28T02:05:31;18.83;;;8.53;;
27839;SDS011;15207;42.182;24.308;2023-02-28T02:07:58;26.55;;;10.35;;
27839;SDS011;15207;42.182;24.308;2023-02-28T02:10:48;22.55;;;9.95;;
27839;SDS011;15207;42.182;24.308;2023-02-28T02:22:09;17.10;;;9.40;;
27839;SDS011;15207;42.182;24.308;2023-02-28T02:27:20;20.50;;;9.10;;
27839;SDS011;15207;42.182;24.308;2023-02-28T02:35:46;21.70;;;8.10;;
27839;SDS011;15207;42.182;24.308;2023-02-28T02:38:19;19.90;;;9.00;;
27839;SDS011;15207;42.182;24.308;2023-02-28T02:46:14;21.90;;;8.30;;
27839;SDS011;15207;42.182;24.308;2023-02-28T02:48:46;25.70;;;8.40;;
27839;SDS011;15207;42.182;24.308;2023-02-28T02:51:16;21.70;;;8.40;;
27839;SDS011;15207;42.182;24.308;2023-02-28T02:53:51;20.40;;;8.02;;
27839;SDS011;15207;42.182;24.308;2023-02-28T02:56:23;18.25;;;7.35;;
27839;SDS011;15207;42.182;24.308;2023-02-28T02:58:52;17.67;;;7.73;;
27839;SDS011;15207;42.182;24.308;2023-02-28T03:01:21;19.10;;;7.20;;
27839;SDS011;15207;42.182;24.308;2023-02-28T03:03:54;20.10;;;8.80;;
27839;SDS011;15207;42.182;24.308;2023-02-28T03:06:47;20.03;;;8.33;;
27839;SDS011;15207;42.182;24.308;2023-02-28T03:09:13;17.35;;;8.60;;
27839;SDS011;15207;42.182;24.308;2023-02-28T03:11:39;17.90;;;9.15;;
27839;SDS011;15207;42.182;24.308;2023-02-28T03:14:13;19.35;;;8.50;;
27839;SDS011;15207;42.182;24.308;2023-02-28T03:24:50;23.00;;;9.25;;
27839;SDS011;15207;42.182;24.308;2023-02-28T03:30:47;21.30;;;9.90;;
27839;SDS011;15207;42.182;24.308;2023-02-28T03:33:28;18.83;;;9.57;;
27839;SDS011;15207;42.182;24.308;2023-02-28T03:36:05;17.30;;;9.75;;
27839;SDS011;15207;42.182;24.308;2023-02-28T03:43:43;36.00;;;11.30;;
27839;SDS011;15207;42.182;24.308;2023-02-28T03:46:14;41.80;;;11.50;;
27839;SDS011;15207;42.182;24.308;2023-02-28T03:48:50;40.80;;;12.95;;
27839;SDS011;15207;42.182;24.308;2023-02-28T03:51:28;40.10;;;13.90;;
27839;SDS011;15207;42.182;24.308;2023-02-28T03:53:59;40.05;;;13.20;;
27839;SDS011;15207;42.182;24.308;2023-02-28T03:56:31;36.35;;;13.40;;
27839;SDS011;15207;42.182;24.308;2023-02-28T03:59:17;37.00;;;12.20;;
27839;SDS011;15207;42.182;24.308;2023-02-28T04:01:51;32.95;;;12.15;;
27839;SDS011;15207;42.182;24.308;2023-02-28T04:04:17;30.15;;;11.50;;
27839;SDS011;15207;42.182;24.308;2023-02-28T04:06:43;34.90;;;11.50;;
27839;SDS011;15207;42.182;24.308;2023-02-28T04:09:10;33.40;;;12.10;;
27839;SDS011;15207;42.182;24.308;2023-02-28T04:11:42;34.50;;;12.60;;
27839;SDS011;15207;42.182;24.308;2023-02-28T04:14:10;24.93;;;11.47;;
27839;SDS011;15207;42.182;24.308;2023-02-28T04:16:38;30.10;;;12.83;;
27839;SDS011;15207;42.182;24.308;2023-02-28T04:21:33;31.70;;;12.17;;
27839;SDS011;15207;42.182;24.308;2023-02-28T04:24:01;31.35;;;12.00;;
27839;SDS011;15207;42.182;24.308;2023-02-28T04:26:33;31.30;;;12.40;;
27839;SDS011;15207;42.182;24.308;2023-02-28T04:29:00;37.80;;;14.05;;
27839;SDS011;15207;42.182;24.308;2023-02-28T04:31:27;39.80;;;13.37;;
27839;SDS011;15207;42.182;24.308;2023-02-28T04:33:53;31.30;;;13.95;;
27839;SDS011;15207;42.182;24.308;2023-02-28T04:36:19;34.33;;;15.07;;
27839;SDS011;15207;42.182;24.308;2023-02-28T04:38:45;41.10;;;15.50;;
27839;SDS011;15207;42.182;24.308;2023-02-28T04:41:14;39.28;;;16.08;;
27839;SDS011;15207;42.182;24.308;2023-02-28T04:46:06;39.43;;;17.93;;
27839;SDS011;15207;42.182;24.308;2023-02-28T04:48:34;42.55;;;18.98;;
27839;SDS011;15207;42.182;24.308;2023-02-28T04:51:02;43.08;;;19.20;;
27839;SDS011;15207;42.182;24.308;2023-02-28T04:53:33;42.90;;;19.38;;
27839;SDS011;15207;42.182;24.308;2023-02-28T04:55:59;41.37;;;20.10;;
27839;SDS011;15207;42.182;24.308;2023-02-28T04:58:25;43.17;;;21.02;;
27839;SDS011;15207;42.182;24.308;2023-02-28T05:00:52;39.42;;;19.00;;
27839;SDS011;15207;42.182;24.308;2023-02-28T05:03:18;45.47;;;21.85;;
27839;SDS011;15207;42.182;24.308;2023-02-28T05:05:46;42.13;;;20.67;;
27839;SDS011;15207;42.182;24.308;2023-02-28T05:08:11;37.50;;;18.87;;
27839;SDS011;15207;42.182;24.308;2023-02-28T05:10:37;45.80;;;19.48;;
27839;SDS011;15207;42.182;24.308;2023-02-28T05:13:03;42.13;;;19.95;;
27839;SDS011;15207;42.182;24.308;2023-02-28T05:15:28;36.72;;;18.48;;
27839;SDS011;15207;42.182;24.308;2023-02-28T05:17:54;38.53;;;18.92;;
27839;SDS011;15207;42.182;24.308;2023-02-28T05:20:19;43.95;;;19.00;;
27839;SDS011;15207;42.182;24.308;2023-02-28T05:22:46;41.00;;;18.45;;
27839;SDS011;15207;42.182;24.308;2023-02-28T05:25:16;41.97;;;20.37;;
27839;SDS011;15207;42.182;24.308;2023-02-28T05:27:44;33.17;;;17.58;;
27839;SDS011;15207;42.182;24.308;2023-02-28T05:30:09;34.27;;;17.17;;
27839;SDS011;15207;42.182;24.308;2023-02-28T05:32:37;37.92;;;17.30;;
27839;SDS011;15207;42.182;24.308;2023-02-28T05:35:04;40.15;;;20.05;;
27839;SDS011;15207;42.182;24.308;2023-02-28T05:37:29;35.13;;;18.35;;
27839;SDS011;15207;42.182;24.308;2023-02-28T05:39:55;40.30;;;18.13;;
27839;SDS011;15207;42.182;24.308;2023-02-28T05:42:21;37.00;;;17.38;;
27839;SDS011;15207;42.182;24.308;2023-02-28T05:44:47;34.57;;;17.53;;
27839;SDS011;15207;42.182;24.308;2023-02-28T05:47:12;36.15;;;18.30;;
27839;SDS011;15207;42.182;24.308;2023-02-28T05:49:40;36.78;;;17.98;;
27839;SDS011;15207;42.182;24.308;2023-02-28T05:52:06;37.42;;;18.73;;
27839;SDS011;15207;42.182;24.308;2023-02-28T05:54:32;34.10;;;18.50;;
27839;SDS011;15207;42.182;24.308;2023-02-28T05:56:58;32.28;;;17.30;;
27839;SDS011;15207;42.182;24.308;2023-02-28T05:59:23;37.72;;;17.23;;
27839;SDS011;15207;42.182;24.308;2023-02-28T06:01:49;42.70;;;18.40;;
27839;SDS011;15207;42.182;24.308;2023-02-28T06:04:15;41.80;;;19.10;;
27839;SDS011;15207;42.182;24.308;2023-02-28T06:06:47;33.53;;;18.13;;
27839;SDS011;15207;42.182;24.308;2023-02-28T06:09:14;39.35;;;18.85;;
27839;SDS011;15207;42.182;24.308;2023-02-28T06:11:41;39.00;;;17.75;;
27839;SDS011;15207;42.182;24.308;2023-02-28T06:14:06;40.65;;;18.58;;
27839;SDS011;15207;42.182;24.308;2023-02-28T06:16:37;41.05;;;18.90;;
27839;SDS011;15207;42.182;24.308;2023-02-28T06:19:03;39.33;;;18.60;;
27839;SDS011;15207;42.182;24.308;2023-02-28T06:21:29;40.05;;;18.13;;
27839;SDS011;15207;42.182;24.308;2023-02-28T06:23:55;35.08;;;17.92;;
27839;SDS011;15207;42.182;24.308;2023-02-28T06:26:22;37.88;;;20.10;;
27839;SDS011;15207;42.182;24.308;2023-02-28T06:28:48;41.50;;;19.50;;
27839;SDS011;15207;42.182;24.308;2023-02-28T06:31:15;42.45;;;19.15;;
27839;SDS011;15207;42.182;24.308;2023-02-28T06:33:42;42.42;;;19.23;;
27839;SDS011;15207;42.182;24.308;2023-02-28T06:36:09;41.25;;;19.55;;
27839;SDS011;15207;42.182;24.308;2023-02-28T06:38:36;45.67;;;20.40;;
27839;SDS011;15207;42.182;24.308;2023-02-28T06:41:02;43.50;;;20.85;;
27839;SDS011;15207;42.182;24.308;2023-02-28T06:43:30;36.13;;;20.40;;
27839;SDS011;15207;42.182;24.308;2023-02-28T06:45:57;44.45;;;22.40;;
27839;SDS011;15207;42.182;24.308;2023-02-28T06:48:25;39.00;;;21.63;;
27839;SDS011;15207;42.182;24.308;2023-02-28T06:50:52;42.83;;;22.13;;
27839;SDS011;15207;42.182;24.308;2023-02-28T06:53:26;41.38;;;22.48;;
27839;SDS011;15207;42.182;24.308;2023-02-28T06:55:51;41.85;;;21.65;;
27839;SDS011;15207;42.182;24.308;2023-02-28T06:58:17;54.72;;;21.85;;
27839;SDS011;15207;42.182;24.308;2023-02-28T07:00:44;50.83;;;22.58;;
27839;SDS011;15207;42.182;24.308;2023-02-28T07:03:11;43.20;;;22.50;;
27839;SDS011;15207;42.182;24.308;2023-02-28T07:05:38;44.47;;;23.80;;
27839;SDS011;15207;42.182;24.308;2023-02-28T07:08:04;48.97;;;24.30;;
27839;SDS011;15207;42.182;24.308;2023-02-28T07:10:31;44.40;;;22.10;;
27839;SDS011;15207;42.182;24.308;2023-02-28T07:12:58;42.80;;;23.27;;
27839;SDS011;15207;42.182;24.308;2023-02-28T07:15:25;45.83;;;23.15;;
27839;SDS011;15207;42.182;24.308;2023-02-28T07:17:51;83.10;;;26.10;;
27839;SDS011;15207;42.182;24.308;2023-02-28T07:20:17;58.60;;;25.75;;
27839;SDS011;15207;42.182;24.308;2023-02-28T07:22:42;46.90;;;25.00;;
27839;SDS011;15207;42.182;24.308;2023-02-28T07:25:08;58.73;;;26.33;;
27839;SDS011;15207;42.182;24.308;2023-02-28T07:27:34;44.33;;;25.40;;
27839;SDS011;15207;42.182;24.308;2023-02-28T07:30:00;45.10;;;24.70;;
27839;SDS011;15207;42.182;24.308;2023-02-28T07:32:27;51.78;;;25.92;;
27839;SDS011;15207;42.182;24.308;2023-02-28T07:34:53;51.90;;;24.50;;
27839;SDS011;15207;42.182;24.308;2023-02-28T07:37:19;52.50;;;25.70;;
27839;SDS011;15207;42.182;24.308;2023-02-28T07:39:44;54.70;;;25.20;;
27839;SDS011;15207;42.182;24.308;2023-02-28T07:42:10;47.67;;;25.30;;
27839;SDS011;15207;42.182;24.308;2023-02-28T07:44:37;57.75;;;26.20;;
27839;SDS011;15207;42.182;24.308;2023-02-28T07:47:08;58.55;;;25.85;;
27839;SDS011;15207;42.182;24.308;2023-02-28T07:49:36;53.40;;;25.00;;
27839;SDS011;15207;42.182;24.308;2023-02-28T07:52:03;53.95;;;25.55;;
27839;SDS011;15207;42.182;24.308;2023-02-28T07:54:30;46.60;;;23.80;;
27839;SDS011;15207;42.182;24.308;2023-02-28T07:56:55;49.67;;;25.50;;
27839;SDS011;15207;42.182;24.308;2023-02-28T07:59:21;53.40;;;25.00;;
27839;SDS011;15207;42.182;24.308;2023-02-28T08:01:46;53.20;;;26.10;;
27839;SDS011;15207;42.182;24.308;2023-02-28T08:06:39;45.40;;;24.33;;
27839;SDS011;15207;42.182;24.308;2023-02-28T08:09:05;48.45;;;25.77;;
27839;SDS011;15207;42.182;24.308;2023-02-28T08:11:31;49.70;;;25.45;;
27839;SDS011;15207;42.182;24.308;2023-02-28T08:13:56;51.55;;;24.15;;
27839;SDS011;15207;42.182;24.308;2023-02-28T08:16:22;51.45;;;24.90;;
27839;SDS011;15207;42.182;24.308;2023-02-28T08:18:48;45.00;;;24.20;;
27839;SDS011;15207;42.182;24.308;2023-02-28T08:21:15;47.80;;;24.40;;
27839;SDS011;15207;42.182;24.308;2023-02-28T08:23:41;46.10;;;23.90;;
27839;SDS011;15207;42.182;24.308;2023-02-28T08:26:06;44.40;;;24.50;;
27839;SDS011;15207;42.182;24.308;2023-02-28T08:28:32;52.70;;;25.83;;
27839;SDS011;15207;42.182;24.308;2023-02-28T08:30:58;55.70;;;24.55;;
27839;SDS011;15207;42.182;24.308;2023-02-28T08:33:24;55.50;;;25.30;;
27839;SDS011;15207;42.182;24.308;2023-02-28T08:35:54;48.95;;;24.90;;
27839;SDS011;15207;42.182;24.308;2023-02-28T08:38:21;48.70;;;23.40;;
27839;SDS011;15207;42.182;24.308;2023-02-28T08:40:47;50.60;;;24.80;;
27839;SDS011;15207;42.182;24.308;2023-02-28T08:43:12;49.10;;;24.60;;
27839;SDS011;15207;42.182;24.308;2023-02-28T08:45:38;54.60;;;25.50;;
27839;SDS011;15207;42.182;24.308;2023-02-28T08:48:03;56.47;;;24.60;;
27839;SDS011;15207;42.182;24.308;2023-02-28T08:50:29;56.80;;;25.30;;
27839;SDS011;15207;42.182;24.308;2023-02-28T08:52:54;54.40;;;25.50;;
27839;SDS011;15207;42.182;24.308;2023-02-28T08:55:20;48.70;;;24.90;;
27839;SDS011;15207;42.182;24.308;2023-02-28T08:57:45;62.40;;;26.20;;
27839;SDS011;15207;42.182;24.308;2023-02-28T09:00:11;48.95;;;24.80;;
27839;SDS011;15207;42.182;24.308;2023-02-28T09:02:38;59.10;;;25.65;;
27839;SDS011;15207;42.182;24.308;2023-02-28T09:05:04;58.17;;;27.13;;
27839;SDS011;15207;42.182;24.308;2023-02-28T09:07:30;58.40;;;27.60;;
27839;SDS011;15207;42.182;24.308;2023-02-28T09:09:57;56.20;;;27.40;;
27839;SDS011;15207;42.182;24.308;2023-02-28T09:12:26;49.50;;;25.85;;
27839;SDS011;15207;42.182;24.308;2023-02-28T09:14:52;50.40;;;27.20;;
27839;SDS011;15207;42.182;24.308;2023-02-28T09:17:18;55.30;;;26.50;;
27839;SDS011;15207;42.182;24.308;2023-02-28T09:19:44;44.90;;;24.20;;
27839;SDS011;15207;42.182;24.308;2023-02-28T09:22:12;52.95;;;25.55;;
27839;SDS011;15207;42.182;24.308;2023-02-28T09:24:38;55.95;;;27.40;;
27839;SDS011;15207;42.182;24.308;2023-02-28T09:27:04;61.80;;;25.60;;
27839;SDS011;15207;42.182;24.308;2023-02-28T09:29:31;45.15;;;25.75;;
27839;SDS011;15207;42.182;24.308;2023-02-28T09:31:57;47.10;;;25.70;;
27839;SDS011;15207;42.182;24.308;2023-02-28T09:34:24;49.90;;;28.10;;
27839;SDS011;15207;42.182;24.308;2023-02-28T09:36:50;51.83;;;28.00;;
27839;SDS011;15207;42.182;24.308;2023-02-28T09:41:46;53.40;;;28.10;;
27839;SDS011;15207;42.182;24.308;2023-02-28T09:46:51;63.20;;;29.70;;
27839;SDS011;15207;42.182;24.308;2023-02-28T09:49:25;58.45;;;29.55;;
27839;SDS011;15207;42.182;24.308;2023-02-28T09:52:01;47.85;;;27.30;;
27839;SDS011;15207;42.182;24.308;2023-02-28T09:54:31;55.00;;;27.50;;
27839;SDS011;15207;42.182;24.308;2023-02-28T09:59:31;52.20;;;29.40;;
27839;SDS011;15207;42.182;24.308;2023-02-28T10:05:14;61.30;;;31.25;;
27839;SDS011;15207;42.182;24.308;2023-02-28T10:16:13;66.35;;;33.15;;
27839;SDS011;15207;42.182;24.308;2023-02-28T10:26:48;68.70;;;31.60;;
27839;SDS011;15207;42.182;24.308;2023-02-28T10:29:17;62.85;;;31.90;;
27839;SDS011;15207;42.182;24.308;2023-02-28T10:31:43;65.15;;;31.45;;
27839;SDS011;15207;42.182;24.308;2023-02-28T10:34:10;61.20;;;31.65;;
27839;SDS011;15207;42.182;24.308;2023-02-28T10:36:37;66.30;;;31.57;;
27839;SDS011;15207;42.182;24.308;2023-02-28T10:42:02;61.05;;;31.85;;
27839;SDS011;15207;42.182;24.308;2023-02-28T10:44:28;68.00;;;30.10;;
27839;SDS011;15207;42.182;24.308;2023-02-28T10:46:53;57.00;;;30.40;;
27839;SDS011;15207;42.182;24.308;2023-02-28T10:49:20;60.30;;;30.40;;
27839;SDS011;15207;42.182;24.308;2023-02-28T10:51:51;70.40;;;30.85;;
27839;SDS011;15207;42.182;24.308;2023-02-28T10:54:22;58.37;;;30.77;;
27839;SDS011;15207;42.182;24.308;2023-02-28T10:59:51;67.20;;;31.75;;
27839;SDS011;15207;42.182;24.308;2023-02-28T11:02:30;66.40;;;33.60;;
27839;SDS011;15207;42.182;24.308;2023-02-28T11:05:02;62.15;;;33.80;;
27839;SDS011;15207;42.182;24.308;2023-02-28T11:07:51;63.30;;;33.30;;
27839;SDS011;15207;42.182;24.308;2023-02-28T11:10:20;68.40;;;35.80;;
27839;SDS011;15207;42.182;24.308;2023-02-28T11:12:50;71.25;;;36.30;;
27839;SDS011;15207;42.182;24.308;2023-02-28T11:17:52;69.80;;;35.55;;
27839;SDS011;15207;42.182;24.308;2023-02-28T11:20:28;62.90;;;34.05;;
27839;SDS011;15207;42.182;24.308;2023-02-28T11:22:57;74.70;;;37.75;;
27839;SDS011;15207;42.182;24.308;2023-02-28T11:25:30;69.80;;;35.80;;
27839;SDS011;15207;42.182;24.308;2023-02-28T11:28:06;66.25;;;36.30;;
27839;SDS011;15207;42.182;24.308;2023-02-28T11:31:00;66.45;;;35.80;;
27839;SDS011;15207;42.182;24.308;2023-02-28T11:33:50;66.50;;;37.70;;
27839;SDS011;15207;42.182;24.308;2023-02-28T11:38:41;77.33;;;39.30;;
27839;SDS011;15207;42.182;24.308;2023-02-28T11:46:26;79.70;;;38.80;;
27839;SDS011;15207;42.182;24.308;2023-02-28T12:00:31;64.53;;;37.00;;
27839;SDS011;15207;42.182;24.308;2023-02-28T12:05:46;70.00;;;36.70;;
27839;SDS011;15207;42.182;24.308;2023-02-28T12:08:47;68.57;;;38.38;;
27839;SDS011;15207;42.182;24.308;2023-02-28T12:16:55;80.93;;;41.35;;
27839;SDS011;15207;42.182;24.308;2023-02-28T12:19:34;70.20;;;38.80;;
27839;SDS011;15207;42.182;24.308;2023-02-28T12:27:15;73.80;;;44.50;;
27839;SDS011;15207;42.182;24.308;2023-02-28T12:29:52;74.83;;;43.27;;
27839;SDS011;15207;42.182;24.308;2023-02-28T12:34:58;91.50;;;49.65;;
27839;SDS011;15207;42.182;24.308;2023-02-28T12:38:01;96.93;;;51.58;;
27839;SDS011;15207;42.182;24.308;2023-02-28T12:40:50;106.30;;;57.22;;
27839;SDS011;15207;42.182;24.308;2023-02-28T12:43:19;100.23;;;52.57;;
27839;SDS011;15207;42.182;24.308;2023-02-28T12:45:58;100.20;;;52.80;;
27839;SDS011;15207;42.182;24.308;2023-02-28T12:48:31;108.88;;;51.65;;
27839;SDS011;15207;42.182;24.308;2023-02-28T12:51:07;95.63;;;49.90;;
27839;SDS011;15207;42.182;24.308;2023-02-28T12:53:52;99.35;;;52.95;;
27839;SDS011;15207;42.182;24.308;2023-02-28T12:56:42;101.22;;;52.80;;
27839;SDS011;15207;42.182;24.308;2023-02-28T13:02:28;89.80;;;49.88;;
27839;SDS011;15207;42.182;24.308;2023-02-28T13:05:26;100.90;;;48.30;;
27839;SDS011;15207;42.182;24.308;2023-02-28T13:07:58;85.85;;;48.72;;
27839;SDS011;15207;42.182;24.308;2023-02-28T13:10:48;102.07;;;51.50;;
27839;SDS011;15207;42.182;24.308;2023-02-28T13:13:20;108.03;;;53.58;;
27839;SDS011;15207;42.182;24.308;2023-02-28T13:18:36;121.20;;;56.45;;
27839;SDS011;15207;42.182;24.308;2023-02-28T13:21:09;115.80;;;54.90;;
27839;SDS011;15207;42.182;24.308;2023-02-28T13:34:30;107.00;;;56.50;;
27839;SDS011;15207;42.182;24.308;2023-02-28T13:39:51;114.50;;;56.67;;
27839;SDS011;15207;42.182;24.308;2023-02-28T13:58:27;104.30;;;50.70;;
27839;SDS011;15207;42.182;24.308;2023-02-28T14:01:21;95.70;;;49.83;;
27839;SDS011;15207;42.182;24.308;2023-02-28T14:03:57;106.93;;;55.07;;
27839;SDS011;15207;42.182;24.308;2023-02-28T14:06:54;99.00;;;51.30;;
27839;SDS011;15207;42.182;24.308;2023-02-28T14:11:57;90.88;;;47.35;;
27839;SDS011;15207;42.182;24.308;2023-02-28T14:17:12;103.20;;;49.90;;
27839;SDS011;15207;42.182;24.308;2023-02-28T14:19:41;97.50;;;50.30;;
27839;SDS011;15207;42.182;24.308;2023-02-28T14:38:51;84.80;;;47.45;;
27839;SDS011;15207;42.182;24.308;2023-02-28T14:41:26;85.70;;;48.15;;
27839;SDS011;15207;42.182;24.308;2023-02-28T14:43:58;82.40;;;45.65;;
27839;SDS011;15207;42.182;24.308;2023-02-28T14:46:26;81.45;;;45.15;;
27839;SDS011;15207;42.182;24.308;2023-02-28T14:49:04;83.25;;;47.25;;
27839;SDS011;15207;42.182;24.308;2023-02-28T14:51:32;78.20;;;46.60;;
27839;SDS011;15207;42.182;24.308;2023-02-28T14:53:59;81.05;;;46.65;;
27839;SDS011;15207;42.182;24.308;2023-02-28T14:56:37;82.20;;;47.80;;
27839;SDS011;15207;42.182;24.308;2023-02-28T14:59:04;70.70;;;42.90;;
27839;SDS011;15207;42.182;24.308;2023-02-28T15:01:31;78.60;;;46.80;;
27839;SDS011;15207;42.182;24.308;2023-02-28T15:04:03;82.20;;;48.90;;
27839;SDS011;15207;42.182;24.308;2023-02-28T15:06:31;79.85;;;47.70;;
27839;SDS011;15207;42.182;24.308;2023-02-28T15:09:14;83.40;;;48.30;;
27839;SDS011;15207;42.182;24.308;2023-02-28T15:11:41;91.40;;;50.00;;
27839;SDS011;15207;42.182;24.308;2023-02-28T15:14:21;85.80;;;48.00;;
27839;SDS011;15207;42.182;24.308;2023-02-28T15:16:52;81.00;;;47.15;;
27839;SDS011;15207;42.182;24.308;2023-02-28T15:29:29;89.60;;;51.95;;
27839;SDS011;15207;42.182;24.308;2023-02-28T15:32:16;90.80;;;50.65;;
27839;SDS011;15207;42.182;24.308;2023-02-28T15:39:58;81.45;;;47.80;;
27839;SDS011;15207;42.182;24.308;2023-02-28T15:42:35;91.50;;;46.60;;
27839;SDS011;15207;42.182;24.308;2023-02-28T15:45:01;79.75;;;47.85;;
27839;SDS011;15207;42.182;24.308;2023-02-28T15:47:27;85.15;;;47.10;;
27839;SDS011;15207;42.182;24.308;2023-02-28T15:49:58;83.50;;;46.00;;
27839;SDS011;15207;42.182;24.308;2023-02-28T15:52:38;81.30;;;44.30;;
27839;SDS011;15207;42.182;24.308;2023-02-28T15:57:54;83.80;;;43.10;;
27839;SDS011;15207;42.182;24.308;2023-02-28T16:02:50;76.30;;;42.40;;
27839;SDS011;15207;42.182;24.308;2023-02-28T16:07:42;79.40;;;44.75;;
27839;SDS011;15207;42.182;24.308;2023-02-28T16:12:36;81.20;;;43.50;;
27839;SDS011;15207;42.182;24.308;2023-02-28T16:15:06;80.10;;;44.00;;
27839;SDS011;15207;42.182;24.308;2023-02-28T16:20:06;81.65;;;45.05;;
27839;SDS011;15207;42.182;24.308;2023-02-28T16:25:04;76.90;;;44.00;;
27839;SDS011;15207;42.182;24.308;2023-02-28T16:27:35;80.72;;;42.85;;
27839;SDS011;15207;42.182;24.308;2023-02-28T16:30:03;76.85;;;42.35;;
27839;SDS011;15207;42.182;24.308;2023-02-28T16:32:30;74.65;;;43.35;;
27839;SDS011;15207;42.182;24.308;2023-02-28T16:37:26;75.45;;;42.55;;
27839;SDS011;15207;42.182;24.308;2023-02-28T16:39:53;73.50;;;43.40;;
27839;SDS011;15207;42.182;24.308;2023-02-28T16:42:26;77.50;;;42.15;;
27839;SDS011;15207;42.182;24.308;2023-02-28T16:44:53;75.60;;;40.70;;
27839;SDS011;15207;42.182;24.308;2023-02-28T16:47:19;77.45;;;42.30;;
27839;SDS011;15207;42.182;24.308;2023-02-28T16:52:12;70.85;;;41.15;;
27839;SDS011;15207;42.182;24.308;2023-02-28T16:54:39;68.60;;;40.40;;
27839;SDS011;15207;42.182;24.308;2023-02-28T16:57:06;70.25;;;40.65;;
27839;SDS011;15207;42.182;24.308;2023-02-28T16:59:41;67.95;;;39.55;;
27839;SDS011;15207;42.182;24.308;2023-02-28T17:02:10;66.35;;;40.40;;
27839;SDS011;15207;42.182;24.308;2023-02-28T17:04:37;73.95;;;42.35;;
27839;SDS011;15207;42.182;24.308;2023-02-28T17:07:03;73.93;;;40.08;;
27839;SDS011;15207;42.182;24.308;2023-02-28T17:09:28;69.35;;;40.70;;
27839;SDS011;15207;42.182;24.308;2023-02-28T17:11:54;67.00;;;38.00;;
27839;SDS011;15207;42.182;24.308;2023-02-28T17:14:21;62.57;;;35.70;;
27839;SDS011;15207;42.182;24.308;2023-02-28T17:16:48;63.70;;;36.75;;
27839;SDS011;15207;42.182;24.308;2023-02-28T17:19:15;68.40;;;36.70;;
27839;SDS011;15207;42.182;24.308;2023-02-28T17:21:42;54.70;;;33.05;;
27839;SDS011;15207;42.182;24.308;2023-02-28T17:24:08;65.70;;;36.10;;
27839;SDS011;15207;42.182;24.308;2023-02-28T17:26:37;64.50;;;35.05;;
27839;SDS011;15207;42.182;24.308;2023-02-28T17:31:31;57.60;;;34.20;;
27839;SDS011;15207;42.182;24.308;2023-02-28T17:33:57;63.30;;;34.70;;
27839;SDS011;15207;42.182;24.308;2023-02-28T17:36:24;56.05;;;32.85;;
27839;SDS011;15207;42.182;24.308;2023-02-28T17:38:51;53.42;;;31.33;;
27839;SDS011;15207;42.182;24.308;2023-02-28T17:41:20;52.45;;;31.38;;
27839;SDS011;15207;42.182;24.308;2023-02-28T17:48:41;54.10;;;30.20;;
27839;SDS011;15207;42.182;24.308;2023-02-28T17:51:07;54.70;;;31.60;;
27839;SDS011;15207;42.182;24.308;2023-02-28T17:53:35;52.40;;;31.25;;
27839;SDS011;15207;42.182;24.308;2023-02-28T17:56:00;50.65;;;31.05;;
27839;SDS011;15207;42.182;24.308;2023-02-28T17:58:26;60.78;;;32.13;;
27839;SDS011;15207;42.182;24.308;2023-02-28T18:03:19;59.85;;;31.60;;
27839;SDS011;15207;42.182;24.308;2023-02-28T18:10:37;56.70;;;32.90;;
27839;SDS011;15207;42.182;24.308;2023-02-28T18:15:28;56.90;;;32.60;;